sensor_id;sensor_type;location;lat;lon;timestamp;pressure;altitude;pressure_sealevel;temperature;humidity
60371;BME280;48550;40.588;49.684;2023-01-25T00:00:16;103423.47;;;-0.20;100.00
60371;BME280;48550;40.588;49.684;2023-01-25T00:02:42;103417.72;;;-0.27;100.00
60371;BME280;48550;40.588;49.684;2023-01-25T00:05:08;103420.44;;;-0.28;100.00
60371;BME280;48550;40.588;49.684;2023-01-25T00:07:34;103422.25;;;-0.29;100.00
60371;BME280;48550;40.588;49.684;2023-01-25T00:09:59;103418.75;;;-0.29;100.00
60371;BME280;48550;40.588;49.684;2023-01-25T00:12:25;103420.16;;;-0.24;100.00
60371;BME280;48550;40.588;49.684;2023-01-25T00:14:51;103410.56;;;-0.25;100.00
60371;BME280;48550;40.588;49.684;2023-01-25T00:17:17;103407.25;;;-0.28;100.00
60371;BME280;48550;40.588;49.684;2023-01-25T00:19:42;103402.38;;;-0.35;100.00
60371;BME280;48550;40.588;49.684;2023-01-25T00:22:08;103408.28;;;-0.31;100.00
60371;BME280;48550;40.588;49.684;2023-01-25T00:24:34;103401.91;;;-0.41;100.00
60371;BME280;48550;40.588;49.684;2023-01-25T00:27:01;103403.78;;;-0.43;100.00
60371;BME280;48550;40.588;49.684;2023-01-25T00:29:27;103405.09;;;-0.36;100.00
60371;BME280;48550;40.588;49.684;2023-01-25T00:39:30;103393.88;;;-0.40;100.00
60371;BME280;48550;40.588;49.684;2023-01-25T00:41:56;103396.63;;;-0.41;100.00
60371;BME280;48550;40.588;49.684;2023-01-25T00:44:22;103387.56;;;-0.37;100.00
60371;BME280;48550;40.588;49.684;2023-01-25T00:46:47;103394.44;;;-0.35;100.00
60371;BME280;48550;40.588;49.684;2023-01-25T00:49:21;103385.78;;;-0.37;100.00
60371;BME280;48550;40.588;49.684;2023-01-25T00:51:48;103384.28;;;-0.41;100.00
60371;BME280;48550;40.588;49.684;2023-01-25T00:54:14;103379.84;;;-0.40;100.00
60371;BME280;48550;40.588;49.684;2023-01-25T00:56:40;103384.84;;;-0.36;100.00
60371;BME280;48550;40.588;49.684;2023-01-25T00:59:06;103382.28;;;-0.37;100.00
60371;BME280;48550;40.588;49.684;2023-01-25T01:01:33;103368.34;;;-0.39;100.00
60371;BME280;48550;40.588;49.684;2023-01-25T01:03:59;103372.97;;;-0.43;100.00
60371;BME280;48550;40.588;49.684;2023-01-25T01:06:24;103372.31;;;-0.46;100.00
60371;BME280;48550;40.588;49.684;2023-01-25T01:08:50;103375.63;;;-0.57;100.00
60371;BME280;48550;40.588;49.684;2023-01-25T01:11:16;103368.47;;;-0.55;100.00
60371;BME280;48550;40.588;49.684;2023-01-25T01:13:41;103370.25;;;-0.55;100.00
60371;BME280;48550;40.588;49.684;2023-01-25T01:16:09;103366.84;;;-0.57;100.00
60371;BME280;48550;40.588;49.684;2023-01-25T01:18:42;103360.94;;;-0.61;100.00
60371;BME280;48550;40.588;49.684;2023-01-25T01:21:10;103363.56;;;-0.61;100.00
60371;BME280;48550;40.588;49.684;2023-01-25T01:23:36;103366.50;;;-0.66;100.00
60371;BME280;48550;40.588;49.684;2023-01-25T01:26:03;103360.56;;;-0.69;100.00
60371;BME280;48550;40.588;49.684;2023-01-25T01:28:30;103363.09;;;-0.68;100.00
60371;BME280;48550;40.588;49.684;2023-01-25T01:31:03;103363.09;;;-0.68;100.00
60371;BME280;48550;40.588;49.684;2023-01-25T01:33:29;103356.03;;;-0.67;100.00
60371;BME280;48550;40.588;49.684;2023-01-25T01:35:55;103353.41;;;-0.67;100.00
60371;BME280;48550;40.588;49.684;2023-01-25T01:38:21;103343.22;;;-0.73;100.00
60371;BME280;48550;40.588;49.684;2023-01-25T01:40:48;103348.31;;;-0.70;100.00
60371;BME280;48550;40.588;49.684;2023-01-25T01:43:19;103343.13;;;-0.72;100.00
60371;BME280;48550;40.588;49.684;2023-01-25T01:45:50;103343.78;;;-0.68;100.00
60371;BME280;48550;40.588;49.684;2023-01-25T01:50:51;103345.00;;;-0.59;100.00
60371;BME280;48550;40.588;49.684;2023-01-25T01:53:20;103339.38;;;-0.68;100.00
60371;BME280;48550;40.588;49.684;2023-01-25T01:55:48;103334.19;;;-0.69;100.00
60371;BME280;48550;40.588;49.684;2023-01-25T01:58:14;103333.16;;;-0.67;100.00
60371;BME280;48550;40.588;49.684;2023-01-25T02:00:40;103334.75;;;-0.64;100.00
60371;BME280;48550;40.588;49.684;2023-01-25T02:03:08;103325.13;;;-0.65;100.00
60371;BME280;48550;40.588;49.684;2023-01-25T02:05:42;103332.50;;;-0.70;100.00
60371;BME280;48550;40.588;49.684;2023-01-25T02:08:12;103320.25;;;-0.71;100.00
60371;BME280;48550;40.588;49.684;2023-01-25T02:10:38;103328.50;;;-0.77;100.00
60371;BME280;48550;40.588;49.684;2023-01-25T02:13:05;103326.06;;;-0.80;100.00
60371;BME280;48550;40.588;49.684;2023-01-25T02:15:43;103319.28;;;-0.84;100.00
60371;BME280;48550;40.588;49.684;2023-01-25T02:18:10;103321.91;;;-0.84;100.00
60371;BME280;48550;40.588;49.684;2023-01-25T02:20:45;103323.78;;;-0.86;100.00
60371;BME280;48550;40.588;49.684;2023-01-25T02:26:05;103327.00;;;-0.81;100.00
60371;BME280;48550;40.588;49.684;2023-01-25T02:28:38;103314.00;;;-0.84;100.00
60371;BME280;48550;40.588;49.684;2023-01-25T02:31:06;103314.84;;;-0.84;100.00
60371;BME280;48550;40.588;49.684;2023-01-25T02:33:32;103316.53;;;-0.83;100.00
60371;BME280;48550;40.588;49.684;2023-01-25T02:38:25;103318.34;;;-0.69;100.00
60371;BME280;48550;40.588;49.684;2023-01-25T02:40:57;103320.63;;;-0.63;100.00
60371;BME280;48550;40.588;49.684;2023-01-25T02:43:28;103319.31;;;-0.70;100.00
60371;BME280;48550;40.588;49.684;2023-01-25T02:46:02;103316.84;;;-0.73;100.00
60371;BME280;48550;40.588;49.684;2023-01-25T02:48:30;103315.41;;;-0.79;100.00
60371;BME280;48550;40.588;49.684;2023-01-25T02:50:56;103314.56;;;-0.79;100.00
60371;BME280;48550;40.588;49.684;2023-01-25T02:53:21;103318.16;;;-0.80;100.00
60371;BME280;48550;40.588;49.684;2023-01-25T02:55:47;103316.25;;;-0.78;100.00
60371;BME280;48550;40.588;49.684;2023-01-25T02:58:12;103322.28;;;-0.76;100.00
60371;BME280;48550;40.588;49.684;2023-01-25T03:00:38;103319.84;;;-0.79;100.00
60371;BME280;48550;40.588;49.684;2023-01-25T03:03:04;103325.13;;;-0.79;100.00
60371;BME280;48550;40.588;49.684;2023-01-25T03:05:29;103325.22;;;-0.81;100.00
60371;BME280;48550;40.588;49.684;2023-01-25T03:07:55;103324.94;;;-0.76;100.00
60371;BME280;48550;40.588;49.684;2023-01-25T03:10:21;103325.03;;;-0.78;100.00
60371;BME280;48550;40.588;49.684;2023-01-25T03:12:46;103325.03;;;-0.78;100.00
60371;BME280;48550;40.588;49.684;2023-01-25T03:15:12;103324.75;;;-0.87;100.00
60371;BME280;48550;40.588;49.684;2023-01-25T03:17:38;103332.56;;;-0.86;100.00
60371;BME280;48550;40.588;49.684;2023-01-25T03:20:03;103332.94;;;-0.78;100.00
60371;BME280;48550;40.588;49.684;2023-01-25T03:22:30;103333.22;;;-0.82;100.00
60371;BME280;48550;40.588;49.684;2023-01-25T03:24:56;103335.03;;;-0.69;100.00
60371;BME280;48550;40.588;49.684;2023-01-25T03:27:22;103338.59;;;-0.70;100.00
60371;BME280;48550;40.588;49.684;2023-01-25T03:29:47;103334.53;;;-0.75;100.00
60371;BME280;48550;40.588;49.684;2023-01-25T03:32:13;103336.06;;;-0.71;100.00
60371;BME280;48550;40.588;49.684;2023-01-25T03:34:39;103338.59;;;-0.70;100.00
60371;BME280;48550;40.588;49.684;2023-01-25T03:37:04;103345.56;;;-0.69;100.00
60371;BME280;48550;40.588;49.684;2023-01-25T03:39:30;103335.03;;;-0.69;100.00
60371;BME280;48550;40.588;49.684;2023-01-25T03:41:56;103350.09;;;-0.56;100.00
60371;BME280;48550;40.588;49.684;2023-01-25T03:44:21;103348.84;;;-0.37;100.00
60371;BME280;48550;40.588;49.684;2023-01-25T03:46:47;103339.03;;;-0.35;100.00
60371;BME280;48550;40.588;49.684;2023-01-25T03:49:13;103345.44;;;-0.39;100.00
60371;BME280;48550;40.588;49.684;2023-01-25T03:51:38;103346.59;;;-0.43;100.00
60371;BME280;48550;40.588;49.684;2023-01-25T03:54:04;103351.88;;;-0.43;100.00
60371;BME280;48550;40.588;49.684;2023-01-25T03:56:32;103351.97;;;-0.44;100.00
60371;BME280;48550;40.588;49.684;2023-01-25T03:58:58;103352.31;;;-0.36;100.00
60371;BME280;48550;40.588;49.684;2023-01-25T04:01:23;103350.47;;;-0.48;100.00
60371;BME280;48550;40.588;49.684;2023-01-25T04:03:49;103355.91;;;-0.37;100.00
60371;BME280;48550;40.588;49.684;2023-01-25T04:06:15;103350.91;;;-0.27;100.00
60371;BME280;48550;40.588;49.684;2023-01-25T04:08:40;103354.28;;;-0.25;100.00
60371;BME280;48550;40.588;49.684;2023-01-25T04:11:08;103351.44;;;-0.22;100.00
60371;BME280;48550;40.588;49.684;2023-01-25T04:13:34;103350.53;;;0.06;100.00
60371;BME280;48550;40.588;49.684;2023-01-25T04:16:02;103357.09;;;1.05;100.00
60371;BME280;48550;40.588;49.684;2023-01-25T04:18:28;103359.69;;;1.68;100.00
60371;BME280;48550;40.588;49.684;2023-01-25T04:20:55;103349.75;;;1.96;100.00
60371;BME280;48550;40.588;49.684;2023-01-25T04:23:22;103355.63;;;2.71;100.00
60371;BME280;48550;40.588;49.684;2023-01-25T04:25:53;103355.56;;;4.27;100.00
60371;BME280;48550;40.588;49.684;2023-01-25T04:28:19;103363.38;;;5.44;100.00
60371;BME280;48550;40.588;49.684;2023-01-25T04:30:45;103370.91;;;6.48;100.00
60371;BME280;48550;40.588;49.684;2023-01-25T04:33:11;103358.31;;;7.16;97.13
60371;BME280;48550;40.588;49.684;2023-01-25T04:35:38;103362.31;;;7.94;84.48
60371;BME280;48550;40.588;49.684;2023-01-25T04:38:04;103373.63;;;8.51;74.82
60371;BME280;48550;40.588;49.684;2023-01-25T04:40:30;103371.44;;;9.16;70.86
60371;BME280;48550;40.588;49.684;2023-01-25T04:42:56;103370.44;;;9.51;64.42
60371;BME280;48550;40.588;49.684;2023-01-25T04:45:24;103368.78;;;10.01;68.96
60371;BME280;48550;40.588;49.684;2023-01-25T04:47:59;103376.53;;;10.12;58.16
60371;BME280;48550;40.588;49.684;2023-01-25T04:50:25;103377.44;;;9.78;60.27
60371;BME280;48550;40.588;49.684;2023-01-25T04:52:51;103373.97;;;10.02;55.03
60371;BME280;48550;40.588;49.684;2023-01-25T04:55:17;103375.94;;;10.42;57.57
60371;BME280;48550;40.588;49.684;2023-01-25T04:57:44;103379.91;;;11.11;50.90
60371;BME280;48550;40.588;49.684;2023-01-25T05:00:10;103380.63;;;10.97;49.25
60371;BME280;48550;40.588;49.684;2023-01-25T05:02:36;103380.31;;;10.52;49.53
60371;BME280;48550;40.588;49.684;2023-01-25T05:05:04;103380.78;;;11.67;64.57
60371;BME280;48550;40.588;49.684;2023-01-25T05:07:29;103370.38;;;11.17;49.28
60371;BME280;48550;40.588;49.684;2023-01-25T05:09:55;103384.22;;;12.23;49.54
60371;BME280;48550;40.588;49.684;2023-01-25T05:12:21;103383.03;;;12.26;44.09
60371;BME280;48550;40.588;49.684;2023-01-25T05:14:46;103388.28;;;13.02;42.83
60371;BME280;48550;40.588;49.684;2023-01-25T05:17:12;103389.94;;;13.41;41.11
60371;BME280;48550;40.588;49.684;2023-01-25T05:19:38;103385.22;;;13.94;41.06
60371;BME280;48550;40.588;49.684;2023-01-25T05:22:04;103387.59;;;14.40;38.49
60371;BME280;48550;40.588;49.684;2023-01-25T05:24:33;103390.47;;;14.53;39.33
60371;BME280;48550;40.588;49.684;2023-01-25T05:27:00;103383.50;;;14.65;38.11
60371;BME280;48550;40.588;49.684;2023-01-25T05:29:29;103381.66;;;14.93;37.15
60371;BME280;48550;40.588;49.684;2023-01-25T05:31:57;103391.91;;;14.98;37.44
60371;BME280;48550;40.588;49.684;2023-01-25T05:34:23;103394.78;;;15.24;36.51
60371;BME280;48550;40.588;49.684;2023-01-25T05:36:49;103386.91;;;15.30;36.46
60371;BME280;48550;40.588;49.684;2023-01-25T05:39:14;103388.47;;;15.52;36.05
60371;BME280;48550;40.588;49.684;2023-01-25T05:41:40;103386.94;;;15.36;35.79
60371;BME280;48550;40.588;49.684;2023-01-25T05:44:06;103393.41;;;15.70;35.65
60371;BME280;48550;40.588;49.684;2023-01-25T05:46:31;103393.63;;;15.68;35.36
60371;BME280;48550;40.588;49.684;2023-01-25T05:48:57;103387.56;;;15.66;36.54
60371;BME280;48550;40.588;49.684;2023-01-25T05:51:23;103383.75;;;16.08;34.68
60371;BME280;48550;40.588;49.684;2023-01-25T05:53:48;103393.78;;;16.21;33.57
60371;BME280;48550;40.588;49.684;2023-01-25T05:56:14;103391.66;;;16.03;34.43
60371;BME280;48550;40.588;49.684;2023-01-25T05:58:40;103382.06;;;16.07;33.69
60371;BME280;48550;40.588;49.684;2023-01-25T06:01:06;103382.72;;;16.09;34.00
60371;BME280;48550;40.588;49.684;2023-01-25T06:03:33;103390.66;;;16.17;32.88
60371;BME280;48550;40.588;49.684;2023-01-25T06:06:00;103388.03;;;15.83;34.53
60371;BME280;48550;40.588;49.684;2023-01-25T06:08:30;103386.41;;;15.95;33.35
60371;BME280;48550;40.588;49.684;2023-01-25T06:10:56;103390.13;;;15.81;33.68
60371;BME280;48550;40.588;49.684;2023-01-25T06:13:22;103384.16;;;16.05;35.32
60371;BME280;48550;40.588;49.684;2023-01-25T06:15:52;103393.63;;;16.36;32.83
60371;BME280;48550;40.588;49.684;2023-01-25T06:18:18;103390.94;;;16.56;32.76
60371;BME280;48550;40.588;49.684;2023-01-25T06:20:44;103385.63;;;16.14;33.02
60371;BME280;48550;40.588;49.684;2023-01-25T06:23:10;103385.03;;;16.19;34.65
60371;BME280;48550;40.588;49.684;2023-01-25T06:25:36;103388.97;;;16.16;33.14
60371;BME280;48550;40.588;49.684;2023-01-25T06:28:01;103377.53;;;16.28;33.72
60371;BME280;48550;40.588;49.684;2023-01-25T06:30:27;103378.66;;;16.66;33.39
60371;BME280;48550;40.588;49.684;2023-01-25T06:32:53;103380.34;;;16.80;34.65
60371;BME280;48550;40.588;49.684;2023-01-25T06:35:18;103381.97;;;17.08;33.78
60371;BME280;48550;40.588;49.684;2023-01-25T06:37:44;103377.81;;;16.99;33.63
60371;BME280;48550;40.588;49.684;2023-01-25T06:40:10;103383.03;;;16.80;34.21
60371;BME280;48550;40.588;49.684;2023-01-25T06:42:36;103380.72;;;17.04;35.15
60371;BME280;48550;40.588;49.684;2023-01-25T06:45:02;103381.56;;;17.04;33.42
60371;BME280;48550;40.588;49.684;2023-01-25T06:47:27;103373.66;;;16.83;32.97
60371;BME280;48550;40.588;49.684;2023-01-25T06:49:53;103374.28;;;16.65;34.27
60371;BME280;48550;40.588;49.684;2023-01-25T06:52:19;103373.22;;;16.53;33.83
60371;BME280;48550;40.588;49.684;2023-01-25T06:54:44;103371.56;;;16.78;33.44
60371;BME280;48550;40.588;49.684;2023-01-25T06:57:10;103373.63;;;16.50;33.65
60371;BME280;48550;40.588;49.684;2023-01-25T06:59:36;103366.78;;;16.67;34.25
60371;BME280;48550;40.588;49.684;2023-01-25T07:02:02;103370.75;;;15.08;35.30
60371;BME280;48550;40.588;49.684;2023-01-25T07:04:27;103366.44;;;11.83;47.37
60371;BME280;48550;40.588;49.684;2023-01-25T07:06:53;103361.97;;;10.23;48.82
60371;BME280;48550;40.588;49.684;2023-01-25T07:09:19;103361.44;;;8.57;53.54
60371;BME280;48550;40.588;49.684;2023-01-25T07:11:49;103360.75;;;7.74;62.90
60371;BME280;48550;40.588;49.684;2023-01-25T07:14:15;103364.66;;;7.43;66.16
60371;BME280;48550;40.588;49.684;2023-01-25T07:16:41;103357.81;;;6.84;64.81
60371;BME280;48550;40.588;49.684;2023-01-25T07:19:09;103353.88;;;6.88;67.18
60371;BME280;48550;40.588;49.684;2023-01-25T07:21:37;103354.88;;;6.58;67.91
60371;BME280;48550;40.588;49.684;2023-01-25T07:24:04;103353.06;;;6.58;72.72
60371;BME280;48550;40.588;49.684;2023-01-25T07:26:30;103344.50;;;6.64;69.04
60371;BME280;48550;40.588;49.684;2023-01-25T07:28:57;103345.50;;;6.34;67.67
60371;BME280;48550;40.588;49.684;2023-01-25T07:31:23;103346.03;;;6.57;95.76
60371;BME280;48550;40.588;49.684;2023-01-25T07:33:51;103339.44;;;6.81;73.42
60371;BME280;48550;40.588;49.684;2023-01-25T07:36:18;103329.63;;;6.43;69.17
60371;BME280;48550;40.588;49.684;2023-01-25T07:38:44;103328.94;;;6.41;66.96
60371;BME280;48550;40.588;49.684;2023-01-25T07:41:10;103328.78;;;6.03;67.74
60371;BME280;48550;40.588;49.684;2023-01-25T07:43:36;103329.50;;;6.15;69.39
60371;BME280;48550;40.588;49.684;2023-01-25T07:46:11;103324.56;;;6.30;67.42
60371;BME280;48550;40.588;49.684;2023-01-25T07:48:45;103320.09;;;6.30;68.24
60371;BME280;48550;40.588;49.684;2023-01-25T07:51:11;103333.28;;;6.51;68.56
60371;BME280;48550;40.588;49.684;2023-01-25T07:53:43;103322.03;;;6.57;65.52
60371;BME280;48550;40.588;49.684;2023-01-25T07:56:10;103318.97;;;6.33;65.20
60371;BME280;48550;40.588;49.684;2023-01-25T07:58:36;103314.31;;;6.45;64.38
60371;BME280;48550;40.588;49.684;2023-01-25T08:01:12;103308.16;;;6.25;63.26
60371;BME280;48550;40.588;49.684;2023-01-25T08:03:38;103303.09;;;6.31;65.30
60371;BME280;48550;40.588;49.684;2023-01-25T08:06:05;103310.69;;;6.36;66.44
60371;BME280;48550;40.588;49.684;2023-01-25T08:08:34;103305.47;;;6.34;66.62
60371;BME280;48550;40.588;49.684;2023-01-25T08:11:18;103303.50;;;6.46;66.33
60371;BME280;48550;40.588;49.684;2023-01-25T08:13:44;103293.97;;;6.44;63.46
60371;BME280;48550;40.588;49.684;2023-01-25T08:16:12;103286.63;;;6.55;64.18
60371;BME280;48550;40.588;49.684;2023-01-25T08:18:38;103278.75;;;6.63;64.81
60371;BME280;48550;40.588;49.684;2023-01-25T08:21:04;103269.53;;;6.48;63.95
60371;BME280;48550;40.588;49.684;2023-01-25T08:23:30;103272.59;;;6.53;69.03
60371;BME280;48550;40.588;49.684;2023-01-25T08:26:01;103270.06;;;6.61;66.58
60371;BME280;48550;40.588;49.684;2023-01-25T08:28:27;103263.72;;;6.62;69.69
60371;BME280;48550;40.588;49.684;2023-01-25T08:30:52;103268.38;;;6.70;68.01
60371;BME280;48550;40.588;49.684;2023-01-25T08:33:18;103258.41;;;6.53;65.65
60371;BME280;48550;40.588;49.684;2023-01-25T08:35:53;103247.09;;;6.31;70.01
60371;BME280;48550;40.588;49.684;2023-01-25T08:38:20;103249.63;;;6.23;74.82
60371;BME280;48550;40.588;49.684;2023-01-25T08:40:46;103245.44;;;6.11;73.59
60371;BME280;48550;40.588;49.684;2023-01-25T08:43:11;103242.06;;;5.99;74.68
60371;BME280;48550;40.588;49.684;2023-01-25T08:45:37;103234.69;;;5.63;78.10
60371;BME280;48550;40.588;49.684;2023-01-25T08:48:03;103237.78;;;5.58;82.30
60371;BME280;48550;40.588;49.684;2023-01-25T08:50:29;103229.63;;;5.40;86.16
60371;BME280;48550;40.588;49.684;2023-01-25T08:52:54;103222.19;;;5.34;90.74
60371;BME280;48550;40.588;49.684;2023-01-25T08:55:20;103216.78;;;5.15;91.81
60371;BME280;48550;40.588;49.684;2023-01-25T08:57:46;103209.47;;;5.07;92.76
60371;BME280;48550;40.588;49.684;2023-01-25T09:00:12;103214.88;;;4.87;95.29
60371;BME280;48550;40.588;49.684;2023-01-25T09:02:37;103210.13;;;4.90;97.49
60371;BME280;48550;40.588;49.684;2023-01-25T09:05:03;103199.53;;;5.09;94.63
60371;BME280;48550;40.588;49.684;2023-01-25T09:07:29;103195.63;;;5.14;91.12
60371;BME280;48550;40.588;49.684;2023-01-25T09:09:57;103193.38;;;5.09;94.18
60371;BME280;48550;40.588;49.684;2023-01-25T09:12:22;103195.06;;;5.10;98.94
60371;BME280;48550;40.588;49.684;2023-01-25T09:14:48;103185.09;;;5.02;100.00
60371;BME280;48550;40.588;49.684;2023-01-25T09:17:14;103178.50;;;4.97;100.00
60371;BME280;48550;40.588;49.684;2023-01-25T09:19:39;103184.94;;;5.04;100.00
60371;BME280;48550;40.588;49.684;2023-01-25T09:22:07;103178.47;;;4.87;100.00
60371;BME280;48550;40.588;49.684;2023-01-25T09:24:32;103168.97;;;4.94;100.00
60371;BME280;48550;40.588;49.684;2023-01-25T09:26:58;103174.78;;;4.78;100.00
60371;BME280;48550;40.588;49.684;2023-01-25T09:29:24;103171.31;;;4.88;100.00
60371;BME280;48550;40.588;49.684;2023-01-25T09:31:50;103159.81;;;4.77;100.00
60371;BME280;48550;40.588;49.684;2023-01-25T09:34:16;103157.41;;;4.74;100.00
60371;BME280;48550;40.588;49.684;2023-01-25T09:36:42;103156.84;;;4.71;100.00
60371;BME280;48550;40.588;49.684;2023-01-25T09:39:09;103159.47;;;4.61;100.00
60371;BME280;48550;40.588;49.684;2023-01-25T09:47:24;103142.69;;;4.70;100.00
60371;BME280;48550;40.588;49.684;2023-01-25T09:55:21;103120.88;;;4.76;100.00
60371;BME280;48550;40.588;49.684;2023-01-25T09:57:50;103125.75;;;4.71;100.00
60371;BME280;48550;40.588;49.684;2023-01-25T10:00:36;103119.88;;;4.68;100.00
60371;BME280;48550;40.588;49.684;2023-01-25T10:05:53;103111.34;;;4.74;100.00
60371;BME280;48550;40.588;49.684;2023-01-25T10:08:48;103115.13;;;4.71;100.00
60371;BME280;48550;40.588;49.684;2023-01-25T10:11:24;103113.75;;;4.87;100.00
60371;BME280;48550;40.588;49.684;2023-01-25T10:13:52;103114.06;;;4.93;100.00
60371;BME280;48550;40.588;49.684;2023-01-25T10:20:08;103114.03;;;4.84;100.00
60371;BME280;48550;40.588;49.684;2023-01-25T10:22:18;103107.47;;;4.88;100.00
60371;BME280;48550;40.588;49.684;2023-01-25T10:30:29;103114.47;;;4.89;100.00
60371;BME280;48550;40.588;49.684;2023-01-25T10:33:01;103113.47;;;4.80;100.00
60371;BME280;48550;40.588;49.684;2023-01-25T10:35:34;103115.44;;;4.88;100.00
60371;BME280;48550;40.588;49.684;2023-01-25T10:38:06;103111.66;;;4.81;100.00
60371;BME280;48550;40.588;49.684;2023-01-25T10:40:41;103109.25;;;4.77;100.00
60371;BME280;48550;40.588;49.684;2023-01-25T10:43:20;103102.25;;;4.76;100.00
60371;BME280;48550;40.588;49.684;2023-01-25T10:45:47;103100.28;;;4.78;100.00
60371;BME280;48550;40.588;49.684;2023-01-25T10:48:20;103106.44;;;4.69;100.00
60371;BME280;48550;40.588;49.684;2023-01-25T10:50:50;103097.75;;;4.67;100.00
60371;BME280;48550;40.588;49.684;2023-01-25T10:53:36;103099.69;;;4.65;100.00
60371;BME280;48550;40.588;49.684;2023-01-25T10:58:48;103090.47;;;4.69;100.00
60371;BME280;48550;40.588;49.684;2023-01-25T11:01:35;103094.94;;;4.69;100.00
60371;BME280;48550;40.588;49.684;2023-01-25T11:04:01;103085.44;;;4.66;100.00
60371;BME280;48550;40.588;49.684;2023-01-25T11:06:39;103094.22;;;4.57;100.00
60371;BME280;48550;40.588;49.684;2023-01-25T11:12:02;103091.59;;;4.67;100.00
60371;BME280;48550;40.588;49.684;2023-01-25T11:14:31;103085.16;;;4.69;100.00
60371;BME280;48550;40.588;49.684;2023-01-25T11:16:58;103085.84;;;4.71;100.00
60371;BME280;48550;40.588;49.684;2023-01-25T11:19:36;103086.84;;;4.70;100.00
60371;BME280;48550;40.588;49.684;2023-01-25T11:24:44;103084.00;;;4.62;100.00
60371;BME280;48550;40.588;49.684;2023-01-25T11:27:23;103088.19;;;4.55;100.00
60371;BME280;48550;40.588;49.684;2023-01-25T11:32:33;103082.75;;;4.57;100.00
60371;BME280;48550;40.588;49.684;2023-01-25T11:34:59;103079.78;;;4.50;100.00
60371;BME280;48550;40.588;49.684;2023-01-25T11:43:11;103083.41;;;4.49;100.00
60371;BME280;48550;40.588;49.684;2023-01-25T11:48:27;103082.66;;;4.37;100.00
60371;BME280;48550;40.588;49.684;2023-01-25T11:51:05;103080.97;;;4.36;100.00
60371;BME280;48550;40.588;49.684;2023-01-25T11:54:04;103074.53;;;4.39;100.00
60371;BME280;48550;40.588;49.684;2023-01-25T11:56:53;103075.50;;;4.38;100.00
60371;BME280;48550;40.588;49.684;2023-01-25T12:05:31;103079.72;;;4.40;100.00
60371;BME280;48550;40.588;49.684;2023-01-25T12:11:27;103076.56;;;4.46;100.00
60371;BME280;48550;40.588;49.684;2023-01-25T12:16:51;103080.56;;;4.41;100.00
60371;BME280;48550;40.588;49.684;2023-01-25T12:34:02;103074.91;;;4.25;100.00
60371;BME280;48550;40.588;49.684;2023-01-25T12:36:35;103076.59;;;4.26;100.00
60371;BME280;48550;40.588;49.684;2023-01-25T12:44:20;103073.53;;;4.30;100.00
60371;BME280;48550;40.588;49.684;2023-01-25T12:51:52;103074.91;;;4.25;100.00
60371;BME280;48550;40.588;49.684;2023-01-25T12:54:31;103074.91;;;4.25;100.00
60371;BME280;48550;40.588;49.684;2023-01-25T12:59:37;103083.56;;;4.27;100.00
60371;BME280;48550;40.588;49.684;2023-01-25T13:02:32;103079.69;;;4.31;100.00
60371;BME280;48550;40.588;49.684;2023-01-25T13:05:15;103075.16;;;4.22;100.00
60371;BME280;48550;40.588;49.684;2023-01-25T13:10:30;103074.19;;;4.23;100.00
60371;BME280;48550;40.588;49.684;2023-01-25T13:13:00;103079.59;;;4.11;100.00
60371;BME280;48550;40.588;49.684;2023-01-25T13:15:42;103076.84;;;4.23;100.00
60371;BME280;48550;40.588;49.684;2023-01-25T13:21:00;103079.72;;;4.10;100.00
60371;BME280;48550;40.588;49.684;2023-01-25T13:23:34;103084.50;;;4.16;100.00
60371;BME280;48550;40.588;49.684;2023-01-25T13:33:59;103084.78;;;4.13;100.00
60371;BME280;48550;40.588;49.684;2023-01-25T13:44:31;103087.84;;;4.08;100.00
60371;BME280;48550;40.588;49.684;2023-01-25T13:47:00;103091.84;;;4.03;100.00
60371;BME280;48550;40.588;49.684;2023-01-25T13:49:39;103094.59;;;3.92;100.00
60371;BME280;48550;40.588;49.684;2023-01-25T13:52:05;103094.19;;;3.96;100.00
60371;BME280;48550;40.588;49.684;2023-01-25T13:54:31;103096.34;;;4.02;100.00
60371;BME280;48550;40.588;49.684;2023-01-25T13:57:11;103100.16;;;4.09;100.00
60371;BME280;48550;40.588;49.684;2023-01-25T13:59:37;103100.28;;;4.08;100.00
60371;BME280;48550;40.588;49.684;2023-01-25T14:02:26;103100.34;;;3.97;100.00
60371;BME280;48550;40.588;49.684;2023-01-25T14:04:52;103096.00;;;3.96;100.00
60371;BME280;48550;40.588;49.684;2023-01-25T14:07:21;103097.94;;;4.14;100.00
60371;BME280;48550;40.588;49.684;2023-01-25T14:09:49;103097.34;;;4.11;100.00
60371;BME280;48550;40.588;49.684;2023-01-25T14:12:35;103099.75;;;4.14;100.00
60371;BME280;48550;40.588;49.684;2023-01-25T14:15:22;103097.75;;;4.06;100.00
60371;BME280;48550;40.588;49.684;2023-01-25T14:18:18;103094.00;;;4.09;100.00
60371;BME280;48550;40.588;49.684;2023-01-25T14:20:46;103100.50;;;3.95;100.00
60371;BME280;48550;40.588;49.684;2023-01-25T14:23:26;103106.13;;;4.02;100.00
60371;BME280;48550;40.588;49.684;2023-01-25T14:25:54;103106.88;;;4.13;100.00
60371;BME280;48550;40.588;49.684;2023-01-25T14:28:20;103108.13;;;4.09;100.00
60371;BME280;48550;40.588;49.684;2023-01-25T14:30:55;103107.16;;;4.10;100.00
60371;BME280;48550;40.588;49.684;2023-01-25T14:33:28;103113.44;;;4.09;100.00
60371;BME280;48550;40.588;49.684;2023-01-25T14:36:28;103118.97;;;3.97;100.00
60371;BME280;48550;40.588;49.684;2023-01-25T14:38:54;103116.16;;;3.98;100.00
60371;BME280;48550;40.588;49.684;2023-01-25T14:41:26;103121.75;;;3.95;100.00
60371;BME280;48550;40.588;49.684;2023-01-25T14:43:55;103117.28;;;3.96;100.00